Grand Cayman, Cayman Islands

12:13 AM EST on September 16, 2014 (GMT -0500)
Cayman Retreat | Change Station
CLOSE
Current Station
Personal Weather Station
Location: George Town,
Elevation: 6 ft
Nearby Weather Stations

Elev 6 ft 19.27 °N, 81.39 °W | Updated 1 second ago

Partly Cloudy
Partly Cloudy
78.5 °F
Feels Like 82 °F
N
1.2
Wind Variable Wind from East
Gusts 1.2 mph

Today
High -- | Low -- °F
--% Chance of Precip.
Yesterday
High -- | Low -- °F
Precip. -- in
6:13 AM 6:27 PM
Waning Gibbous, 49% visible
Pressure 30.04 in
Visibility 6.2 miles
Clouds Few 2200 ft
Heat Index 82 °F
Dew Point 74 °F
Humidity 86%
Rainfall 0.00 in
Snow Depth Not available.
UV 0 out of 12
Pollen Not available.
Air Quality Not available.
Flu Activity Not available.
METAR MWCR 160250Z 09008KT 9999 FEW022 28/25 Q1017 NOSIG

More Conditions Fewer Conditions

Pressure 30.04 in
Visibility 6.2 miles
Clouds Few 2200 ft
Heat Index 82 °F
Dew Point 74 °F
Humidity 86%
Rainfall 0.00 in
Snow Depth Not available.
UV 0 out of 12
Pollen Not available.
Air Quality Not available.
Flu Activity Not available.
METAR MWCR 160250Z 09008KT 9999 FEW022 28/25 Q1017 NOSIG

More Conditions Fewer Conditions

10-Day Weather Forecast

Almanac

Astronomy

Sep. 16, 2014 Rise Set
Actual Time 6:13 AM EST 6:27 PM EST
Civil Twilight 5:51 AM EST 6:49 PM EST
Nautical Twilight 5:25 AM EST 7:14 PM EST
Astronomical Twilight 5:00 AM EST 7:40 PM EST
Moon No Moon Rise 1:15 PM EST
Length of Visible Light 12h 57m
Length of Day
12h 13m
Tomorrow will be 1m 5s shorter.
Waning Gibbous, 49% of the Moon is Illuminated
Today
Waning Gibbous
Sep 24
New
Oct 1
First Quarter
Oct 8
Full
Oct 15
Last Quarter

Yesterday's Extremes

Country Highs Country Lows

Community

WunderPhotos

Upload Photos

1,753,702 photos uploaded!

Nearby

Snow Depth

Not available.

Earthquake Activity

City Distance Mag. Time & Date
No recent earthquake activity has been reported nearby.
Minimum magnitude displayed is 2.5.

Coastal Water Temperatures

Place Temperature
No Stations Reporting

Nearby Weather Stations